Fisk, Texas
Current Conditions -  °F | °C
As of 4:55 AM on Thursday 23 Oct 2014 (Local Time) from KCOM Reporting Station
Overcast Overcast  
Wind Chill: 62°   Ceiling: 4900
Heat Index: 62°   Visibility: 10mi
Dew Point: 59°   Wind: 3mph
Humidity: 91%   Direction: 230°SW
Pressure: 30.12"   Gusts: NA
Location:  31.8779°N, 99.43°W
Report Text: KCOM 230955Z AUTO 23003KT 10SM BKN049 OVC060 17/15 A3012 RMK AO2 T01650150
Loading
Personal Weather Stations






























Interactive Weather Map
Tropical Storm Tracking
New forecast layout! Learn more

10-Day Weather Forecast

Advertisements
Track Severe Weather on mobile